Terminal Aerodrome Forecast
Issued by NWS

Home | Current Version | Previous Version | Text Only | Print | Product List | Glossary On
Versions: 1 2 3 4 5 6 7 8 9 10 11 12 13 14 15 16 17 18 19 20
000
FTUS41 KILN 200500
TAFLUK
TAF
KLUK 200527Z 2006/2106 15003KT 4SM BR SCT250
     FM201000 18005KT P6SM SCT050
     FM201500 21012G20KT P6SM BKN050
     FM202300 22010KT P6SM FEW050=

USA.gov is the U.S. government's official web portal to all federal, state and local government web resources and services.